createdAt,value
2019-04-09T00:02:26.056Z,124.63
2019-04-09T00:04:55.378Z,124.53
2019-04-09T00:07:24.218Z,132.23
2019-04-09T00:09:53.928Z,127.40
2019-04-09T00:12:23.878Z,132.27
2019-04-09T00:14:53.360Z,129.03
2019-04-09T00:17:22.655Z,131.70
2019-04-09T00:19:52.245Z,134.53
2019-04-09T00:22:21.763Z,129.70
2019-04-09T00:24:51.013Z,131.13
2019-04-09T00:27:20.557Z,126.77
2019-04-09T00:29:50.514Z,129.87
2019-04-09T00:32:20.641Z,128.57
2019-04-09T00:34:49.973Z,129.73
2019-04-09T00:37:19.261Z,131.63
2019-04-09T00:39:48.857Z,127.43
2019-04-09T00:42:18.730Z,129.97
2019-04-09T00:44:48.901Z,129.80
2019-04-09T00:47:18.747Z,129.43
2019-04-09T00:49:48.675Z,121.63
2019-04-09T00:52:18.142Z,127.07
2019-04-09T00:54:47.974Z,123.23
2019-04-09T00:57:18.504Z,124.63
2019-04-09T00:59:48.626Z,128.10
2019-04-09T01:02:18.367Z,125.10
2019-04-09T01:04:48.580Z,130.10
2019-04-09T01:07:18.792Z,126.77
2019-04-09T01:09:48.491Z,120.83
2019-04-09T01:12:18.489Z,128.60
2019-04-09T01:14:48.411Z,125.03
2019-04-09T01:17:18.792Z,122.93
2019-04-09T01:19:48.717Z,127.33
2019-04-09T01:22:19.265Z,121.67
2019-04-09T01:24:57.875Z,125.37
2019-04-09T01:27:35.305Z,126.50
2019-04-09T01:30:32.076Z,123.37
2019-04-09T01:33:26.812Z,129.47
2019-04-09T01:36:19.153Z,125.27
2019-04-09T01:39:05.631Z,127.93
2019-04-09T01:41:53.940Z,126.70
2019-04-09T01:44:30.025Z,127.50
2019-04-09T01:47:12.436Z,129.33
2019-04-09T01:50:09.588Z,123.63
2019-04-09T01:53:03.668Z,125.63
2019-04-09T01:55:45.881Z,127.50
2019-04-09T01:58:24.512Z,123.67
2019-04-09T02:01:19.912Z,125.30
2019-04-09T02:04:07.932Z,120.20
2019-04-09T02:06:51.887Z,121.83
2019-04-09T02:09:29.551Z,115.90
2019-04-09T02:12:11.196Z,121.50
2019-04-09T02:15:00.745Z,117.50
2019-04-09T02:18:01.214Z,120.07
2019-04-09T02:21:04.690Z,124.77
2019-04-09T02:23:50.274Z,114.27
2019-04-09T02:26:42.708Z,121.87
2019-04-09T02:29:29.108Z,117.27
2019-04-09T02:32:28.136Z,125.33
2019-04-09T02:35:22.589Z,118.70
2019-04-09T02:38:24.212Z,122.17
2019-04-09T02:41:12.702Z,117.13
2019-04-09T02:44:08.429Z,121.20
2019-04-09T02:46:56.639Z,125.07
2019-04-09T02:49:45.608Z,115.43
2019-04-09T02:52:23.292Z,114.53
2019-04-09T02:55:16.362Z,116.13
2019-04-09T02:58:04.459Z,111.93
2019-04-09T03:00:52.864Z,113.90
2019-04-09T03:03:42.395Z,113.50
2019-04-09T03:06:21.243Z,116.30
2019-04-09T03:09:18.363Z,117.27
2019-04-09T03:12:15.723Z,118.07
2019-04-09T03:15:07.236Z,113.50
2019-04-09T03:17:56.332Z,114.93
2019-04-09T03:21:03.462Z,127.23
2019-04-09T03:23:58.325Z,130.13
2019-04-09T03:26:43.643Z,127.87
2019-04-09T03:29:32.175Z,131.73
2019-04-09T03:32:12.349Z,130.13
2019-04-09T03:35:00.975Z,133.47
2019-04-09T03:37:49.169Z,126.37
2019-04-09T03:40:46.179Z,132.13
2019-04-09T03:43:31.558Z,125.47
2019-04-09T03:46:23.206Z,132.33
2019-04-09T03:49:15.691Z,133.03
2019-04-09T03:51:58.266Z,131.43
2019-04-09T03:54:37.082Z,131.60
2019-04-09T03:57:19.949Z,117.60
2019-04-09T04:00:11.499Z,117.93
2019-04-09T04:03:00.872Z,117.63
2019-04-09T04:05:42.950Z,116.77
2019-04-09T04:08:20.778Z,116.50
2019-04-09T04:11:11.212Z,117.83
2019-04-09T04:14:11.896Z,119.20
2019-04-09T04:16:57.250Z,119.03
2019-04-09T04:19:44.158Z,125.87
2019-04-09T04:22:21.472Z,125.07
2019-04-09T04:25:10.151Z,127.97
2019-04-09T04:28:01.648Z,129.20
2019-04-09T04:30:56.910Z,127.83
2019-04-09T04:33:51.936Z,126.00
2019-04-09T04:36:32.966Z,136.17
2019-04-09T04:39:37.116Z,141.63
2019-04-09T04:42:19.281Z,128.80
2019-04-09T04:44:57.481Z,129.33
2019-04-09T04:47:37.883Z,136.00
2019-04-09T04:50:29.438Z,140.53
2019-04-09T04:53:20.516Z,140.27
2019-04-09T04:56:07.780Z,140.10
2019-04-09T04:58:49.914Z,128.17
2019-04-09T05:01:48.664Z,136.87
2019-04-09T05:04:46.263Z,131.67
2019-04-09T05:07:47.893Z,132.50
2019-04-09T05:10:27.766Z,138.47
2019-04-09T05:13:26.044Z,130.90
2019-04-09T05:16:17.144Z,136.80
2019-04-09T05:19:10.007Z,140.13
2019-04-09T05:21:58.808Z,130.70
2019-04-09T05:24:56.678Z,138.87
2019-04-09T05:27:45.990Z,134.10
2019-04-09T05:30:20.855Z,122.57
2019-04-09T05:33:22.395Z,136.33
2019-04-09T05:36:20.446Z,125.93
2019-04-09T05:39:11.536Z,127.20
2019-04-09T05:42:08.775Z,128.57
2019-04-09T05:45:09.660Z,118.20
2019-04-09T05:47:53.606Z,125.27
2019-04-09T05:50:47.558Z,120.07
2019-04-09T05:53:24.073Z,123.00
2019-04-09T05:56:08.361Z,119.00
2019-04-09T05:59:07.563Z,122.50
2019-04-09T06:02:09.385Z,125.03
2019-04-09T06:05:06.799Z,121.50
2019-04-09T06:07:55.351Z,108.00
2019-04-09T06:10:26.036Z,109.33
2019-04-09T06:12:55.509Z,111.23
2019-04-09T06:15:25.328Z,99.83
2019-04-09T06:17:54.954Z,95.83
2019-04-09T06:20:24.295Z,91.60
2019-04-09T06:22:53.936Z,89.70
2019-04-09T06:25:23.305Z,80.80
2019-04-09T06:27:53.253Z,86.57
2019-04-09T06:30:22.722Z,80.30
2019-04-09T06:33:10.096Z,76.43
2019-04-09T06:36:01.751Z,75.33
2019-04-09T06:38:56.324Z,75.93
2019-04-09T06:41:44.557Z,72.30
2019-04-09T06:44:22.211Z,73.40
2019-04-09T06:47:04.469Z,75.20
2019-04-09T06:49:52.703Z,76.63
2019-04-09T06:52:34.437Z,82.40
2019-04-09T06:55:25.020Z,77.87
2019-04-09T06:58:22.692Z,83.53
2019-04-09T07:01:04.480Z,79.43
2019-04-09T07:03:51.472Z,83.77
2019-04-09T07:06:51.881Z,80.97
2019-04-09T07:09:47.661Z,80.40
2019-04-09T07:12:35.071Z,85.40
2019-04-09T07:15:52.760Z,79.23
2019-04-09T07:18:35.652Z,81.40
2019-04-09T07:21:40.379Z,79.63
2019-04-09T07:24:27.839Z,84.70
2019-04-09T07:27:18.364Z,81.80
2019-04-09T07:30:11.375Z,83.93
2019-04-09T07:32:58.426Z,83.53
2019-04-09T07:35:56.836Z,81.57
2019-04-09T07:39:01.913Z,77.17
2019-04-09T07:41:50.770Z,81.57
2019-04-09T07:44:53.976Z,86.03
2019-04-09T07:47:31.674Z,78.23
2019-04-09T07:50:19.816Z,83.63
2019-04-09T07:53:20.439Z,81.57
2019-04-09T07:56:12.218Z,76.43
2019-04-09T07:58:49.405Z,77.77
2019-04-09T08:01:34.263Z,73.03
2019-04-09T08:04:26.129Z,75.23
2019-04-09T08:07:19.576Z,69.53
2019-04-09T08:10:22.472Z,77.37
2019-04-09T08:13:06.778Z,75.80
2019-04-09T08:15:57.922Z,70.53
2019-04-09T08:18:35.565Z,73.70
2019-04-09T08:21:24.102Z,74.13
2019-04-09T08:24:30.311Z,70.77
2019-04-09T08:27:14.980Z,63.43
2019-04-09T08:30:20.180Z,60.00
2019-04-09T08:33:02.210Z,62.53
2019-04-09T08:36:09.317Z,67.60
2019-04-09T08:39:01.366Z,61.97
2019-04-09T08:41:35.755Z,60.37
2019-04-09T08:44:15.908Z,65.43
2019-04-09T08:47:03.553Z,61.20
2019-04-09T08:49:58.261Z,66.20
2019-04-09T08:52:44.383Z,66.43
2019-04-09T08:55:39.354Z,63.07
2019-04-09T08:58:24.311Z,74.77
2019-04-09T09:03:49.408Z,70.97
2019-04-09T09:06:25.878Z,65.80
2019-04-09T09:09:14.105Z,64.17
2019-04-09T09:12:08.297Z,76.47
2019-04-09T09:14:58.278Z,65.90
2019-04-09T09:17:50.214Z,72.20
2019-04-09T09:20:55.521Z,68.93
2019-04-09T09:24:02.330Z,66.67
2019-04-09T09:26:48.968Z,64.80
2019-04-09T09:29:39.940Z,57.93
2019-04-09T09:32:35.696Z,54.37
2019-04-09T09:35:24.184Z,55.07
2019-04-09T09:38:09.098Z,55.90
2019-04-09T09:41:07.918Z,52.20
2019-04-09T09:43:53.981Z,57.63
2019-04-09T09:46:34.427Z,52.80
2019-04-09T09:49:08.784Z,55.33
2019-04-09T09:51:56.315Z,52.87
2019-04-09T09:54:43.075Z,56.00
2019-04-09T09:57:34.423Z,52.97
2019-04-09T10:00:22.119Z,52.60
2019-04-09T10:03:06.022Z,52.17
2019-04-09T10:05:54.449Z,49.40
2019-04-09T10:08:41.674Z,53.20
2019-04-09T10:11:18.288Z,53.97
2019-04-09T10:14:19.434Z,52.50
2019-04-09T10:17:06.382Z,50.23
2019-04-09T10:19:57.107Z,48.90
2019-04-09T10:22:43.704Z,51.17
2019-04-09T10:25:35.564Z,51.77
2019-04-09T10:28:22.876Z,52.93
2019-04-09T10:31:20.946Z,49.37
2019-04-09T10:33:58.079Z,57.20
2019-04-09T10:36:55.368Z,56.07
2019-04-09T10:39:45.243Z,50.67
2019-04-09T10:42:32.021Z,48.53
2019-04-09T10:45:21.267Z,48.67
2019-04-09T10:48:00.303Z,49.60
2019-04-09T10:50:45.202Z,46.27
2019-04-09T10:53:22.521Z,46.03
2019-04-09T10:56:09.937Z,43.47
2019-04-09T10:58:57.037Z,42.57
2019-04-09T11:01:49.641Z,41.47
2019-04-09T11:04:42.423Z,46.83
2019-04-09T11:07:40.381Z,46.67
2019-04-09T11:10:28.507Z,44.50
2019-04-09T11:13:10.245Z,46.40
2019-04-09T11:16:05.877Z,43.63
2019-04-09T11:18:51.727Z,47.40
2019-04-09T11:21:46.116Z,45.87
2019-04-09T11:24:35.638Z,45.23
2019-04-09T11:27:27.147Z,44.47
2019-04-09T11:30:07.697Z,45.90
2019-04-09T11:33:02.490Z,44.83
2019-04-09T11:35:52.678Z,44.13
2019-04-09T11:38:41.026Z,41.27
2019-04-09T11:41:32.327Z,41.20
2019-04-09T11:44:19.196Z,42.63
2019-04-09T11:47:04.142Z,40.03
2019-04-09T11:49:48.896Z,42.00
2019-04-09T11:52:35.226Z,40.73
2019-04-09T11:55:25.379Z,42.30
2019-04-09T11:58:06.012Z,40.80
2019-04-09T12:01:00.136Z,41.33
2019-04-09T12:03:47.502Z,42.07
2019-04-09T12:06:35.467Z,40.03
2019-04-09T12:09:35.408Z,38.93
2019-04-09T12:12:24.162Z,38.87
2019-04-09T12:15:12.806Z,40.27
2019-04-09T12:17:59.758Z,40.60
2019-04-09T12:20:48.725Z,39.73
2019-04-09T12:23:34.181Z,41.77
2019-04-09T12:26:16.956Z,40.37
2019-04-09T12:29:12.327Z,41.73
2019-04-09T12:31:54.981Z,42.03
2019-04-09T12:34:42.375Z,39.97
2019-04-09T12:37:29.451Z,40.10
2019-04-09T12:40:26.873Z,42.27
2019-04-09T12:43:50.512Z,40.77
2019-04-09T12:46:51.531Z,42.43
2019-04-09T12:49:46.486Z,42.20
2019-04-09T12:52:37.805Z,41.47
2019-04-09T12:55:15.665Z,43.00
2019-04-09T12:57:54.507Z,41.53
2019-04-09T13:00:33.966Z,42.93
2019-04-09T13:03:37.887Z,41.40
2019-04-09T13:06:35.734Z,44.27
2019-04-09T13:09:14.058Z,43.10
2019-04-09T13:11:52.981Z,42.83
2019-04-09T13:14:36.777Z,42.70
2019-04-09T13:17:19.109Z,42.67
2019-04-09T13:20:26.285Z,43.73
2019-04-09T13:23:12.413Z,41.37
2019-04-09T13:26:12.816Z,44.10
2019-04-09T13:29:00.777Z,43.13
2019-04-09T13:31:48.688Z,44.37
2019-04-09T13:34:23.780Z,43.23
2019-04-09T13:37:02.249Z,45.97
2019-04-09T13:39:54.528Z,43.40
2019-04-09T13:42:46.561Z,44.10
2019-04-09T13:45:37.556Z,44.07
2019-04-09T13:48:30.116Z,44.97
2019-04-09T13:51:28.544Z,41.77
2019-04-09T13:53:57.795Z,43.07
2019-04-09T13:56:27.236Z,43.70
2019-04-09T13:58:56.580Z,42.43
2019-04-09T14:01:26.351Z,42.47
2019-04-09T14:04:07.197Z,41.80
2019-04-09T14:06:37.144Z,43.40
2019-04-09T14:09:07.957Z,44.00
2019-04-09T14:11:37.312Z,42.90
2019-04-09T14:14:06.834Z,42.77
2019-04-09T14:16:36.425Z,40.20
2019-04-09T14:19:05.720Z,35.47
2019-04-09T14:21:36.203Z,32.60
2019-04-09T14:24:06.322Z,31.07
2019-04-09T14:26:36.202Z,29.07
2019-04-09T14:29:05.473Z,30.70
2019-04-09T14:31:34.906Z,29.43
2019-04-09T14:34:05.063Z,34.20
2019-04-09T14:36:34.468Z,29.57
2019-04-09T14:39:05.628Z,36.20
2019-04-09T14:41:34.858Z,33.03
2019-04-09T14:44:05.778Z,27.17
2019-04-09T14:46:35.482Z,27.30
2019-04-09T14:49:05.769Z,35.60
2019-04-09T14:51:35.943Z,39.90
2019-04-09T14:54:06.274Z,41.50
2019-04-09T14:56:36.982Z,40.77
2019-04-09T14:59:06.712Z,42.73
2019-04-09T15:01:36.850Z,40.97
2019-04-09T15:04:07.292Z,42.93
2019-04-09T15:06:37.113Z,44.67
2019-04-09T15:09:09.213Z,42.77
2019-04-09T15:11:38.553Z,43.43
2019-04-09T15:14:08.521Z,44.63
2019-04-09T15:16:38.859Z,44.87
2019-04-09T15:19:09.299Z,46.87
2019-04-09T15:21:45.116Z,48.53
2019-04-09T15:24:15.066Z,39.47
2019-04-09T15:26:44.383Z,40.57
2019-04-09T15:29:14.313Z,48.07
2019-04-09T15:31:43.850Z,49.87
2019-04-09T15:34:13.866Z,50.40
2019-04-09T15:36:43.601Z,50.70
2019-04-09T15:39:16.233Z,49.83
2019-04-09T15:41:46.698Z,51.30
2019-04-09T15:44:17.458Z,48.10
2019-04-09T15:46:47.944Z,50.53
2019-04-09T15:49:17.808Z,50.03
2019-04-09T15:51:47.106Z,50.33
2019-04-09T15:54:16.696Z,51.57
2019-04-09T15:56:46.700Z,51.77
2019-04-09T15:59:16.004Z,50.47
2019-04-09T16:01:45.676Z,49.23
2019-04-09T16:04:15.202Z,48.83
2019-04-09T16:06:44.615Z,51.77
2019-04-09T16:09:18.765Z,50.43
2019-04-09T16:11:48.428Z,49.67
2019-04-09T16:14:17.612Z,50.80
2019-04-09T16:16:47.136Z,51.90
2019-04-09T16:19:16.599Z,50.93
2019-04-09T16:21:46.739Z,51.20
2019-04-09T16:24:17.070Z,53.47
2019-04-09T16:26:47.482Z,51.10
2019-04-09T16:29:16.788Z,53.20
2019-04-09T16:31:46.933Z,51.67
2019-04-09T16:34:17.621Z,52.10
2019-04-09T16:36:59.955Z,52.93
2019-04-09T16:39:18.008Z,53.03
2019-04-09T16:41:47.972Z,52.37
2019-04-09T16:44:18.027Z,51.13
2019-04-09T16:46:47.306Z,52.57
2019-04-09T16:49:16.658Z,52.77
2019-04-09T16:51:47.095Z,51.60
2019-04-09T16:54:16.502Z,50.40
2019-04-09T16:56:46.456Z,51.03
2019-04-09T16:59:15.752Z,50.17
2019-04-09T17:01:45.656Z,50.17
2019-04-09T17:04:22.539Z,49.70
2019-04-09T17:06:46.874Z,49.33
2019-04-09T17:09:25.893Z,49.03
2019-04-09T17:11:47.490Z,49.73
2019-04-09T17:14:17.484Z,50.73
2019-04-09T17:16:46.982Z,51.47
2019-04-09T17:19:17.101Z,48.23
2019-04-09T17:21:46.425Z,49.47
2019-04-09T17:24:16.716Z,49.97
2019-04-09T17:26:47.499Z,50.33
2019-04-09T17:29:17.044Z,51.13
2019-04-09T17:31:46.928Z,50.77
2019-04-09T17:34:27.634Z,61.87
2019-04-09T17:36:50.710Z,69.23
2019-04-09T17:39:19.908Z,68.20
2019-04-09T17:42:00.154Z,54.50
2019-04-09T17:44:21.290Z,55.57
2019-04-09T17:46:50.681Z,51.73
2019-04-09T17:49:20.726Z,51.47
2019-04-09T17:51:51.213Z,50.50
2019-04-09T17:54:21.523Z,49.63
2019-04-09T17:56:50.791Z,51.23
2019-04-09T17:59:20.051Z,46.23
2019-04-09T18:01:49.634Z,44.63
2019-04-09T18:04:20.233Z,45.33
2019-04-09T18:06:49.906Z,36.97
2019-04-09T18:09:19.700Z,40.60
2019-04-09T18:11:49.362Z,34.17
2019-04-09T18:14:19.003Z,24.90
2019-04-09T18:16:48.859Z,21.07
2019-04-09T18:19:19.024Z,20.93
2019-04-09T18:21:49.041Z,18.93
2019-04-09T18:24:18.420Z,18.37
2019-04-09T18:26:49.238Z,18.23
2019-04-09T18:29:18.776Z,16.53
2019-04-09T18:31:48.509Z,18.47
2019-04-09T18:34:18.628Z,17.50
2019-04-09T18:36:48.493Z,17.43
2019-04-09T18:39:17.724Z,16.93
2019-04-09T18:41:46.920Z,17.40
2019-04-09T18:44:16.524Z,17.50
2019-04-09T18:46:45.754Z,17.80
2019-04-09T18:49:15.266Z,17.43
2019-04-09T18:51:44.873Z,18.30
2019-04-09T18:54:14.274Z,17.37
2019-04-09T18:56:43.991Z,18.27
2019-04-09T18:59:13.636Z,18.03
2019-04-09T19:01:43.614Z,18.53
2019-04-09T19:04:17.425Z,18.27
2019-04-09T19:06:44.945Z,17.50
2019-04-09T19:09:17.868Z,18.30
2019-04-09T19:11:47.799Z,18.37
2019-04-09T19:14:17.056Z,17.73
2019-04-09T19:16:46.597Z,18.80
2019-04-09T19:19:16.304Z,18.37
2019-04-09T19:21:47.078Z,17.80
2019-04-09T19:24:17.041Z,18.83
2019-04-09T19:26:46.957Z,17.90
2019-04-09T19:29:18.296Z,17.80
2019-04-09T19:31:48.026Z,18.23
2019-04-09T19:34:17.651Z,19.20
2019-04-09T19:36:48.368Z,19.30
2019-04-09T19:39:18.225Z,18.23
2019-04-09T19:41:51.827Z,18.33
2019-04-09T19:44:18.968Z,18.77
2019-04-09T19:46:49.015Z,19.37
2019-04-09T19:49:19.108Z,17.73
2019-04-09T19:51:48.853Z,18.33
2019-04-09T19:54:18.239Z,18.07
2019-04-09T19:56:47.920Z,17.80
2019-04-09T19:59:18.113Z,17.73
2019-04-09T20:01:47.669Z,17.23
2019-04-09T20:04:17.181Z,17.60
2019-04-09T20:06:47.911Z,18.00
2019-04-09T20:09:20.253Z,17.40
2019-04-09T20:11:50.001Z,18.27
2019-04-09T20:14:24.661Z,18.80
2019-04-09T20:16:53.933Z,18.63
2019-04-09T20:19:23.211Z,17.53
2019-04-09T20:21:52.509Z,17.70
2019-04-09T20:24:22.685Z,17.57
2019-04-09T20:26:52.757Z,18.37
2019-04-09T20:29:22.324Z,17.30
2019-04-09T20:32:46.546Z,18.37
2019-04-09T20:35:17.662Z,17.70
2019-04-09T20:37:47.167Z,17.00
2019-04-09T20:40:18.499Z,16.97
2019-04-09T20:42:50.832Z,17.07
2019-04-09T20:45:20.559Z,17.23
2019-04-09T20:47:50.812Z,16.40
2019-04-09T20:50:50.514Z,16.97
2019-04-09T20:53:20.085Z,16.50
2019-04-09T20:55:51.896Z,16.93
2019-04-09T20:58:21.235Z,17.03
2019-04-09T21:01:15.287Z,17.17
2019-04-09T21:04:06.686Z,17.40
2019-04-09T21:06:35.041Z,17.13
2019-04-09T21:09:06.798Z,17.40
2019-04-09T21:11:36.129Z,16.87
2019-04-09T21:14:05.762Z,16.27
2019-04-09T21:16:35.045Z,16.77
2019-04-09T21:19:04.498Z,16.97
2019-04-09T21:21:33.780Z,17.53
2019-04-09T21:24:03.106Z,16.60
2019-04-09T21:26:32.704Z,16.73
2019-04-09T21:29:02.048Z,16.83
2019-04-09T21:31:31.514Z,15.90
2019-04-09T21:34:01.371Z,15.33
2019-04-09T21:36:31.219Z,15.47
2019-04-09T21:39:00.828Z,15.03
2019-04-09T21:41:30.558Z,15.20
2019-04-09T21:44:00.503Z,15.33
2019-04-09T21:46:31.493Z,15.30
2019-04-09T21:49:02.027Z,14.40
2019-04-09T21:51:31.479Z,14.30
2019-04-09T21:54:02.844Z,14.23
2019-04-09T21:56:31.650Z,14.07
2019-04-09T21:59:01.795Z,13.93
2019-04-09T22:01:31.609Z,14.20
2019-04-09T22:04:01.093Z,13.90
2019-04-09T22:06:33.020Z,14.57
2019-04-09T22:09:02.645Z,13.53
2019-04-09T22:11:32.018Z,12.60
2019-04-09T22:14:01.768Z,13.80
2019-04-09T22:16:31.724Z,13.83
2019-04-09T22:19:01.999Z,13.70
2019-04-09T22:21:31.406Z,13.03
2019-04-09T22:24:00.586Z,12.83
2019-04-09T22:26:30.014Z,12.63
2019-04-09T22:29:00.637Z,12.83
2019-04-09T22:31:31.953Z,12.20
2019-04-09T22:34:01.615Z,11.83
2019-04-09T22:36:37.546Z,12.03
2019-04-09T22:39:02.132Z,12.40
2019-04-09T22:41:31.388Z,12.23
2019-04-09T22:44:04.956Z,12.00
2019-04-09T22:46:31.835Z,12.23
2019-04-09T22:49:01.082Z,12.47
2019-04-09T22:51:30.702Z,12.03
2019-04-09T22:54:01.018Z,12.37
2019-04-09T22:56:31.196Z,12.20
2019-04-09T22:59:01.553Z,12.53
2019-04-09T23:01:42.566Z,12.67
2019-04-09T23:04:35.113Z,12.60
2019-04-09T23:07:17.187Z,12.93
2019-04-09T23:10:15.440Z,12.73
2019-04-09T23:12:47.303Z,12.33
2019-04-09T23:15:29.887Z,13.00
2019-04-09T23:18:00.151Z,12.77
2019-04-09T23:20:30.439Z,11.87
2019-04-09T23:23:00.234Z,12.93
2019-04-09T23:25:29.471Z,13.10
2019-04-09T23:27:58.982Z,13.10
2019-04-09T23:30:28.223Z,13.33
2019-04-09T23:32:58.329Z,12.83
2019-04-09T23:35:28.089Z,13.00
2019-04-09T23:37:57.759Z,13.40
2019-04-09T23:40:27.286Z,13.47
2019-04-09T23:42:57.339Z,13.20
2019-04-09T23:45:26.732Z,13.40
2019-04-09T23:47:56.049Z,12.87
2019-04-09T23:50:25.657Z,14.43
2019-04-09T23:52:54.895Z,13.20
2019-04-09T23:55:24.977Z,13.27
2019-04-09T23:57:55.130Z,14.20
